sensor_id;sensor_type;location;lat;lon;timestamp;temperature;humidity
15160;DHT22;7680;48.800;9.680;2024-03-29T00:00:22;3.30;99.90
15160;DHT22;7680;48.800;9.680;2024-03-29T00:05:24;3.30;99.90
15160;DHT22;7680;48.800;9.680;2024-03-29T00:10:26;3.40;99.90
15160;DHT22;7680;48.800;9.680;2024-03-29T00:15:27;3.40;99.90
15160;DHT22;7680;48.800;9.680;2024-03-29T00:20:30;3.40;99.90
15160;DHT22;7680;48.800;9.680;2024-03-29T00:25:31;3.50;99.90
15160;DHT22;7680;48.800;9.680;2024-03-29T00:30:32;3.60;99.90
15160;DHT22;7680;48.800;9.680;2024-03-29T00:35:35;3.80;99.90
15160;DHT22;7680;48.800;9.680;2024-03-29T00:40:36;3.90;99.90
15160;DHT22;7680;48.800;9.680;2024-03-29T00:45:37;4.40;99.90
15160;DHT22;7680;48.800;9.680;2024-03-29T00:50:40;4.80;99.90
15160;DHT22;7680;48.800;9.680;2024-03-29T00:55:41;4.90;99.90
15160;DHT22;7680;48.800;9.680;2024-03-29T01:00:43;4.90;99.90
15160;DHT22;7680;48.800;9.680;2024-03-29T01:05:45;5.00;99.90
15160;DHT22;7680;48.800;9.680;2024-03-29T01:10:46;5.20;99.90
15160;DHT22;7680;48.800;9.680;2024-03-29T01:15:48;5.30;99.90
15160;DHT22;7680;48.800;9.680;2024-03-29T01:20:50;5.30;99.90
15160;DHT22;7680;48.800;9.680;2024-03-29T01:25:51;5.10;99.90
15160;DHT22;7680;48.800;9.680;2024-03-29T01:30:53;4.80;99.90
15160;DHT22;7680;48.800;9.680;2024-03-29T01:35:55;4.80;99.90
15160;DHT22;7680;48.800;9.680;2024-03-29T01:40:57;4.80;99.90
15160;DHT22;7680;48.800;9.680;2024-03-29T01:45:58;5.10;99.90
15160;DHT22;7680;48.800;9.680;2024-03-29T01:51:02;5.10;99.90
15160;DHT22;7680;48.800;9.680;2024-03-29T01:56:06;5.60;99.90
15160;DHT22;7680;48.800;9.680;2024-03-29T02:01:08;6.00;99.90
15160;DHT22;7680;48.800;9.680;2024-03-29T02:06:15;6.40;99.90
15160;DHT22;7680;48.800;9.680;2024-03-29T02:11:17;7.00;99.90
15160;DHT22;7680;48.800;9.680;2024-03-29T02:16:20;7.20;99.90
15160;DHT22;7680;48.800;9.680;2024-03-29T02:21:23;7.30;99.90
15160;DHT22;7680;48.800;9.680;2024-03-29T02:26:27;6.90;99.90
15160;DHT22;7680;48.800;9.680;2024-03-29T02:31:32;6.60;99.90
15160;DHT22;7680;48.800;9.680;2024-03-29T02:36:34;6.30;99.90
15160;DHT22;7680;48.800;9.680;2024-03-29T02:41:38;6.20;99.90
15160;DHT22;7680;48.800;9.680;2024-03-29T02:46:40;6.20;99.90
15160;DHT22;7680;48.800;9.680;2024-03-29T02:51:43;6.20;99.90
15160;DHT22;7680;48.800;9.680;2024-03-29T02:56:46;6.30;99.90
15160;DHT22;7680;48.800;9.680;2024-03-29T03:01:48;6.40;99.90
15160;DHT22;7680;48.800;9.680;2024-03-29T03:06:51;6.20;99.90
15160;DHT22;7680;48.800;9.680;2024-03-29T03:11:54;6.00;99.90
15160;DHT22;7680;48.800;9.680;2024-03-29T03:16:56;5.90;99.90
15160;DHT22;7680;48.800;9.680;2024-03-29T03:21:58;6.10;99.90
15160;DHT22;7680;48.800;9.680;2024-03-29T03:27:02;6.00;99.90
15160;DHT22;7680;48.800;9.680;2024-03-29T03:32:05;6.20;99.90
15160;DHT22;7680;48.800;9.680;2024-03-29T03:37:08;6.20;99.90
15160;DHT22;7680;48.800;9.680;2024-03-29T03:42:11;6.40;99.90
15160;DHT22;7680;48.800;9.680;2024-03-29T03:47:13;6.30;99.90
15160;DHT22;7680;48.800;9.680;2024-03-29T03:52:15;6.30;99.90
15160;DHT22;7680;48.800;9.680;2024-03-29T03:57:19;6.30;99.90
15160;DHT22;7680;48.800;9.680;2024-03-29T04:02:21;6.30;99.90
15160;DHT22;7680;48.800;9.680;2024-03-29T04:07:23;6.30;99.90
15160;DHT22;7680;48.800;9.680;2024-03-29T04:12:28;6.20;99.90
15160;DHT22;7680;48.800;9.680;2024-03-29T04:17:30;6.20;99.90
15160;DHT22;7680;48.800;9.680;2024-03-29T04:22:32;6.20;99.90
15160;DHT22;7680;48.800;9.680;2024-03-29T04:27:36;6.20;99.90
15160;DHT22;7680;48.800;9.680;2024-03-29T04:32:38;6.30;99.90
15160;DHT22;7680;48.800;9.680;2024-03-29T04:37:40;6.50;99.90
15160;DHT22;7680;48.800;9.680;2024-03-29T04:42:44;6.80;99.90
15160;DHT22;7680;48.800;9.680;2024-03-29T04:47:46;7.00;99.90
15160;DHT22;7680;48.800;9.680;2024-03-29T04:52:48;7.10;99.90
15160;DHT22;7680;48.800;9.680;2024-03-29T04:57:51;6.90;99.90
15160;DHT22;7680;48.800;9.680;2024-03-29T05:02:53;6.80;99.90
15160;DHT22;7680;48.800;9.680;2024-03-29T05:07:56;6.70;99.90
15160;DHT22;7680;48.800;9.680;2024-03-29T05:12:59;6.70;99.90
15160;DHT22;7680;48.800;9.680;2024-03-29T05:18:02;6.80;99.90
15160;DHT22;7680;48.800;9.680;2024-03-29T05:23:05;6.80;99.90
15160;DHT22;7680;48.800;9.680;2024-03-29T05:28:09;7.00;99.90
15160;DHT22;7680;48.800;9.680;2024-03-29T05:33:11;7.50;99.90
15160;DHT22;7680;48.800;9.680;2024-03-29T05:38:13;7.30;99.90
15160;DHT22;7680;48.800;9.680;2024-03-29T05:43:17;7.10;99.90
15160;DHT22;7680;48.800;9.680;2024-03-29T05:48:19;7.20;99.90
15160;DHT22;7680;48.800;9.680;2024-03-29T05:53:21;7.30;99.90
15160;DHT22;7680;48.800;9.680;2024-03-29T05:58:25;7.50;99.90
15160;DHT22;7680;48.800;9.680;2024-03-29T06:03:27;7.50;99.90
15160;DHT22;7680;48.800;9.680;2024-03-29T06:08:29;7.50;99.90
15160;DHT22;7680;48.800;9.680;2024-03-29T06:13:33;7.50;99.90
15160;DHT22;7680;48.800;9.680;2024-03-29T06:18:49;7.50;99.90
15160;DHT22;7680;48.800;9.680;2024-03-29T06:23:51;7.30;99.90
15160;DHT22;7680;48.800;9.680;2024-03-29T06:28:55;7.30;99.90
15160;DHT22;7680;48.800;9.680;2024-03-29T06:33:57;7.30;99.90
15160;DHT22;7680;48.800;9.680;2024-03-29T06:38:59;7.50;99.90
15160;DHT22;7680;48.800;9.680;2024-03-29T06:44:03;7.70;99.90
15160;DHT22;7680;48.800;9.680;2024-03-29T06:49:06;7.80;99.90
15160;DHT22;7680;48.800;9.680;2024-03-29T06:54:08;8.40;99.90
15160;DHT22;7680;48.800;9.680;2024-03-29T06:59:11;8.90;99.90
15160;DHT22;7680;48.800;9.680;2024-03-29T07:04:14;9.10;99.90
15160;DHT22;7680;48.800;9.680;2024-03-29T07:09:16;9.30;99.90
15160;DHT22;7680;48.800;9.680;2024-03-29T07:14:19;9.50;99.90
15160;DHT22;7680;48.800;9.680;2024-03-29T07:19:24;9.70;98.70
15160;DHT22;7680;48.800;9.680;2024-03-29T07:24:26;9.90;98.60
15160;DHT22;7680;48.800;9.680;2024-03-29T07:29:30;10.10;98.00
15160;DHT22;7680;48.800;9.680;2024-03-29T07:34:34;10.20;98.00
15160;DHT22;7680;48.800;9.680;2024-03-29T07:39:37;10.30;97.60
15160;DHT22;7680;48.800;9.680;2024-03-29T07:44:40;10.40;97.20
15160;DHT22;7680;48.800;9.680;2024-03-29T07:49:42;10.40;98.20
15160;DHT22;7680;48.800;9.680;2024-03-29T07:54:46;10.20;99.90
15160;DHT22;7680;48.800;9.680;2024-03-29T07:59:51;10.10;99.90
15160;DHT22;7680;48.800;9.680;2024-03-29T08:04:54;9.60;99.90
15160;DHT22;7680;48.800;9.680;2024-03-29T08:09:56;9.20;99.90
15160;DHT22;7680;48.800;9.680;2024-03-29T08:14:59;8.90;99.90
15160;DHT22;7680;48.800;9.680;2024-03-29T08:20:02;8.90;99.90
15160;DHT22;7680;48.800;9.680;2024-03-29T08:25:04;8.90;99.90
15160;DHT22;7680;48.800;9.680;2024-03-29T08:30:09;9.00;99.90
15160;DHT22;7680;48.800;9.680;2024-03-29T08:35:12;9.00;99.90
15160;DHT22;7680;48.800;9.680;2024-03-29T08:40:14;9.10;99.90
15160;DHT22;7680;48.800;9.680;2024-03-29T08:45:18;9.10;99.90
15160;DHT22;7680;48.800;9.680;2024-03-29T08:50:21;9.10;99.90
15160;DHT22;7680;48.800;9.680;2024-03-29T08:55:23;9.10;99.90
15160;DHT22;7680;48.800;9.680;2024-03-29T09:00:27;9.30;99.90
15160;DHT22;7680;48.800;9.680;2024-03-29T09:05:29;9.50;99.90
15160;DHT22;7680;48.800;9.680;2024-03-29T09:10:31;9.60;99.90
15160;DHT22;7680;48.800;9.680;2024-03-29T09:15:35;9.60;99.90
15160;DHT22;7680;48.800;9.680;2024-03-29T09:20:37;9.70;99.90
15160;DHT22;7680;48.800;9.680;2024-03-29T09:25:39;9.90;99.90
15160;DHT22;7680;48.800;9.680;2024-03-29T09:30:43;9.90;99.90
15160;DHT22;7680;48.800;9.680;2024-03-29T09:35:46;10.00;99.90
15160;DHT22;7680;48.800;9.680;2024-03-29T09:40:57;10.10;99.90
15160;DHT22;7680;48.800;9.680;2024-03-29T09:46:06;10.20;99.90
15160;DHT22;7680;48.800;9.680;2024-03-29T09:51:09;10.10;99.90
15160;DHT22;7680;48.800;9.680;2024-03-29T09:56:14;10.20;99.90
15160;DHT22;7680;48.800;9.680;2024-03-29T10:01:18;10.20;99.90
15160;DHT22;7680;48.800;9.680;2024-03-29T10:06:23;10.00;99.90
15160;DHT22;7680;48.800;9.680;2024-03-29T10:11:26;10.00;99.90
15160;DHT22;7680;48.800;9.680;2024-03-29T10:16:31;10.00;99.90
15160;DHT22;7680;48.800;9.680;2024-03-29T10:21:34;10.20;99.90
15160;DHT22;7680;48.800;9.680;2024-03-29T10:26:37;10.20;99.90
15160;DHT22;7680;48.800;9.680;2024-03-29T10:31:41;10.30;99.90
15160;DHT22;7680;48.800;9.680;2024-03-29T10:36:43;10.40;99.90
15160;DHT22;7680;48.800;9.680;2024-03-29T10:41:46;10.50;99.90
15160;DHT22;7680;48.800;9.680;2024-03-29T10:46:51;10.60;99.90
15160;DHT22;7680;48.800;9.680;2024-03-29T10:51:54;10.80;99.90
15160;DHT22;7680;48.800;9.680;2024-03-29T10:56:59;10.90;99.90
15160;DHT22;7680;48.800;9.680;2024-03-29T11:02:12;11.00;99.90
15160;DHT22;7680;48.800;9.680;2024-03-29T11:07:20;10.90;99.90
15160;DHT22;7680;48.800;9.680;2024-03-29T11:12:23;11.00;99.90
15160;DHT22;7680;48.800;9.680;2024-03-29T11:17:28;11.20;99.90
15160;DHT22;7680;48.800;9.680;2024-03-29T11:22:31;11.40;99.90
15160;DHT22;7680;48.800;9.680;2024-03-29T11:27:33;11.60;99.90
15160;DHT22;7680;48.800;9.680;2024-03-29T11:32:38;11.60;99.90
15160;DHT22;7680;48.800;9.680;2024-03-29T11:37:41;11.70;99.90
15160;DHT22;7680;48.800;9.680;2024-03-29T11:42:44;11.90;99.90
15160;DHT22;7680;48.800;9.680;2024-03-29T11:47:50;12.20;99.90
15160;DHT22;7680;48.800;9.680;2024-03-29T11:52:53;12.40;99.90
15160;DHT22;7680;48.800;9.680;2024-03-29T11:57:56;12.70;99.90
15160;DHT22;7680;48.800;9.680;2024-03-29T12:02:59;12.60;99.90
15160;DHT22;7680;48.800;9.680;2024-03-29T12:08:01;12.70;99.90
15160;DHT22;7680;48.800;9.680;2024-03-29T12:13:04;12.90;99.90
15160;DHT22;7680;48.800;9.680;2024-03-29T12:18:08;13.00;99.90
15160;DHT22;7680;48.800;9.680;2024-03-29T12:23:10;13.00;99.90
15160;DHT22;7680;48.800;9.680;2024-03-29T12:28:15;13.20;99.90
15160;DHT22;7680;48.800;9.680;2024-03-29T12:33:20;13.60;99.90
15160;DHT22;7680;48.800;9.680;2024-03-29T12:38:23;14.00;99.90
15160;DHT22;7680;48.800;9.680;2024-03-29T12:43:26;14.20;99.90
15160;DHT22;7680;48.800;9.680;2024-03-29T12:48:30;14.00;99.90
15160;DHT22;7680;48.800;9.680;2024-03-29T12:53:38;14.10;99.90
15160;DHT22;7680;48.800;9.680;2024-03-29T12:58:40;14.10;99.90
15160;DHT22;7680;48.800;9.680;2024-03-29T13:03:44;14.40;99.90
15160;DHT22;7680;48.800;9.680;2024-03-29T13:08:46;14.30;99.90
15160;DHT22;7680;48.800;9.680;2024-03-29T13:13:50;14.20;99.90
15160;DHT22;7680;48.800;9.680;2024-03-29T13:18:53;14.20;99.90
15160;DHT22;7680;48.800;9.680;2024-03-29T13:23:56;14.10;99.90
15160;DHT22;7680;48.800;9.680;2024-03-29T13:28:58;14.30;99.90
15160;DHT22;7680;48.800;9.680;2024-03-29T13:34:02;14.60;99.90
15160;DHT22;7680;48.800;9.680;2024-03-29T13:39:12;14.80;99.90
15160;DHT22;7680;48.800;9.680;2024-03-29T13:44:15;15.10;99.90
15160;DHT22;7680;48.800;9.680;2024-03-29T13:49:20;14.90;99.90
15160;DHT22;7680;48.800;9.680;2024-03-29T13:54:23;14.80;99.90
15160;DHT22;7680;48.800;9.680;2024-03-29T13:59:25;14.90;99.90
15160;DHT22;7680;48.800;9.680;2024-03-29T14:04:29;14.90;99.90
15160;DHT22;7680;48.800;9.680;2024-03-29T14:09:31;15.30;99.50
15160;DHT22;7680;48.800;9.680;2024-03-29T14:14:34;15.20;99.70
15160;DHT22;7680;48.800;9.680;2024-03-29T14:19:38;15.60;97.40
15160;DHT22;7680;48.800;9.680;2024-03-29T14:24:40;15.60;98.00
15160;DHT22;7680;48.800;9.680;2024-03-29T14:29:43;15.70;97.80
15160;DHT22;7680;48.800;9.680;2024-03-29T14:34:48;15.60;97.70
15160;DHT22;7680;48.800;9.680;2024-03-29T14:39:50;15.70;96.80
15160;DHT22;7680;48.800;9.680;2024-03-29T14:44:52;15.80;96.70
15160;DHT22;7680;48.800;9.680;2024-03-29T14:49:56;15.80;96.00
15160;DHT22;7680;48.800;9.680;2024-03-29T14:54:58;15.90;95.70
15160;DHT22;7680;48.800;9.680;2024-03-29T15:00:00;15.80;96.70
15160;DHT22;7680;48.800;9.680;2024-03-29T15:05:05;15.80;97.70
15160;DHT22;7680;48.800;9.680;2024-03-29T15:10:08;15.80;98.30
15160;DHT22;7680;48.800;9.680;2024-03-29T15:15:11;15.80;99.10
15160;DHT22;7680;48.800;9.680;2024-03-29T15:20:15;16.10;98.50
15160;DHT22;7680;48.800;9.680;2024-03-29T15:25:18;16.00;99.50
15160;DHT22;7680;48.800;9.680;2024-03-29T15:30:20;16.20;99.10
15160;DHT22;7680;48.800;9.680;2024-03-29T15:35:24;16.20;99.50
15160;DHT22;7680;48.800;9.680;2024-03-29T15:40:26;16.20;99.90
15160;DHT22;7680;48.800;9.680;2024-03-29T15:45:28;16.00;99.90
15160;DHT22;7680;48.800;9.680;2024-03-29T15:50:31;15.90;99.90
15160;DHT22;7680;48.800;9.680;2024-03-29T15:55:34;15.90;99.90
15160;DHT22;7680;48.800;9.680;2024-03-29T16:00:36;15.80;99.90
15160;DHT22;7680;48.800;9.680;2024-03-29T16:05:45;15.70;99.90
15160;DHT22;7680;48.800;9.680;2024-03-29T16:10:52;15.60;99.90
15160;DHT22;7680;48.800;9.680;2024-03-29T16:15:58;15.50;99.90
15160;DHT22;7680;48.800;9.680;2024-03-29T16:21:02;15.40;99.90
15160;DHT22;7680;48.800;9.680;2024-03-29T16:26:05;15.40;99.90
15160;DHT22;7680;48.800;9.680;2024-03-29T16:31:07;15.30;99.90
15160;DHT22;7680;48.800;9.680;2024-03-29T16:36:11;15.20;99.90
15160;DHT22;7680;48.800;9.680;2024-03-29T16:41:13;15.10;99.90
15160;DHT22;7680;48.800;9.680;2024-03-29T16:46:15;14.90;99.90
15160;DHT22;7680;48.800;9.680;2024-03-29T16:51:19;14.80;99.90
15160;DHT22;7680;48.800;9.680;2024-03-29T16:56:21;14.70;99.90
15160;DHT22;7680;48.800;9.680;2024-03-29T17:01:23;14.60;99.90
15160;DHT22;7680;48.800;9.680;2024-03-29T17:06:27;14.50;99.90
15160;DHT22;7680;48.800;9.680;2024-03-29T17:11:33;14.40;99.90
15160;DHT22;7680;48.800;9.680;2024-03-29T17:16:36;14.30;99.90
15160;DHT22;7680;48.800;9.680;2024-03-29T17:21:39;14.10;99.90
15160;DHT22;7680;48.800;9.680;2024-03-29T17:26:41;13.90;99.90
15160;DHT22;7680;48.800;9.680;2024-03-29T17:31:44;13.70;99.90
15160;DHT22;7680;48.800;9.680;2024-03-29T17:36:47;13.50;99.90
15160;DHT22;7680;48.800;9.680;2024-03-29T17:41:50;13.30;99.90
15160;DHT22;7680;48.800;9.680;2024-03-29T17:46:52;13.30;99.90
15160;DHT22;7680;48.800;9.680;2024-03-29T17:51:55;13.40;99.90
15160;DHT22;7680;48.800;9.680;2024-03-29T17:56:58;13.20;99.90
15160;DHT22;7680;48.800;9.680;2024-03-29T18:02:00;13.10;99.90
15160;DHT22;7680;48.800;9.680;2024-03-29T18:07:03;13.00;99.90
15160;DHT22;7680;48.800;9.680;2024-03-29T18:12:06;12.90;99.90
15160;DHT22;7680;48.800;9.680;2024-03-29T18:17:08;12.80;99.90
15160;DHT22;7680;48.800;9.680;2024-03-29T18:22:12;12.70;99.90
15160;DHT22;7680;48.800;9.680;2024-03-29T18:27:14;12.60;99.90
15160;DHT22;7680;48.800;9.680;2024-03-29T18:32:16;12.40;99.90
15160;DHT22;7680;48.800;9.680;2024-03-29T18:37:19;12.20;99.90
15160;DHT22;7680;48.800;9.680;2024-03-29T18:42:21;12.10;99.90
15160;DHT22;7680;48.800;9.680;2024-03-29T18:47:24;11.90;99.90
15160;DHT22;7680;48.800;9.680;2024-03-29T18:52:27;11.80;99.90
15160;DHT22;7680;48.800;9.680;2024-03-29T18:57:29;11.60;99.90
15160;DHT22;7680;48.800;9.680;2024-03-29T19:02:31;11.50;99.90
15160;DHT22;7680;48.800;9.680;2024-03-29T19:07:35;11.40;99.90
15160;DHT22;7680;48.800;9.680;2024-03-29T19:12:37;11.30;99.90
15160;DHT22;7680;48.800;9.680;2024-03-29T19:17:39;11.20;99.90
15160;DHT22;7680;48.800;9.680;2024-03-29T19:22:43;11.10;99.90
15160;DHT22;7680;48.800;9.680;2024-03-29T19:27:48;11.10;99.90
15160;DHT22;7680;48.800;9.680;2024-03-29T19:32:55;11.10;99.90
15160;DHT22;7680;48.800;9.680;2024-03-29T19:37:59;11.20;99.90
15160;DHT22;7680;48.800;9.680;2024-03-29T19:43:01;11.10;99.90
15160;DHT22;7680;48.800;9.680;2024-03-29T19:48:04;10.90;99.90
15160;DHT22;7680;48.800;9.680;2024-03-29T19:53:09;10.90;99.90
15160;DHT22;7680;48.800;9.680;2024-03-29T19:58:11;10.80;99.90
15160;DHT22;7680;48.800;9.680;2024-03-29T20:03:13;10.80;99.90
15160;DHT22;7680;48.800;9.680;2024-03-29T20:08:17;10.90;99.90
15160;DHT22;7680;48.800;9.680;2024-03-29T20:13:19;10.80;99.90
15160;DHT22;7680;48.800;9.680;2024-03-29T20:18:21;10.80;99.90
15160;DHT22;7680;48.800;9.680;2024-03-29T20:23:25;10.80;99.90
15160;DHT22;7680;48.800;9.680;2024-03-29T20:28:28;10.80;99.90
15160;DHT22;7680;48.800;9.680;2024-03-29T20:33:30;10.80;99.90
15160;DHT22;7680;48.800;9.680;2024-03-29T20:38:34;10.80;99.90
15160;DHT22;7680;48.800;9.680;2024-03-29T20:43:36;10.80;99.90
15160;DHT22;7680;48.800;9.680;2024-03-29T20:48:39;10.80;99.90
15160;DHT22;7680;48.800;9.680;2024-03-29T20:53:42;10.80;99.90
15160;DHT22;7680;48.800;9.680;2024-03-29T20:58:46;10.60;99.90
15160;DHT22;7680;48.800;9.680;2024-03-29T21:03:48;10.60;99.90
15160;DHT22;7680;48.800;9.680;2024-03-29T21:09:09;10.50;99.90
15160;DHT22;7680;48.800;9.680;2024-03-29T21:14:11;10.50;99.90
15160;DHT22;7680;48.800;9.680;2024-03-29T21:19:13;10.50;99.90
15160;DHT22;7680;48.800;9.680;2024-03-29T21:24:17;10.40;99.90
15160;DHT22;7680;48.800;9.680;2024-03-29T21:29:19;10.30;99.90
15160;DHT22;7680;48.800;9.680;2024-03-29T21:34:21;10.40;99.90
15160;DHT22;7680;48.800;9.680;2024-03-29T21:39:24;10.40;99.90
15160;DHT22;7680;48.800;9.680;2024-03-29T21:44:26;10.20;99.90
15160;DHT22;7680;48.800;9.680;2024-03-29T21:49:29;10.10;99.90
15160;DHT22;7680;48.800;9.680;2024-03-29T21:54:32;9.90;99.90
15160;DHT22;7680;48.800;9.680;2024-03-29T21:59:36;9.80;99.90
15160;DHT22;7680;48.800;9.680;2024-03-29T22:04:38;9.80;99.90
15160;DHT22;7680;48.800;9.680;2024-03-29T22:09:42;9.60;99.90
15160;DHT22;7680;48.800;9.680;2024-03-29T22:14:44;9.60;99.90
15160;DHT22;7680;48.800;9.680;2024-03-29T22:19:46;9.50;99.90
15160;DHT22;7680;48.800;9.680;2024-03-29T22:24:50;9.40;99.90
15160;DHT22;7680;48.800;9.680;2024-03-29T22:29:52;9.30;99.90
15160;DHT22;7680;48.800;9.680;2024-03-29T22:34:54;9.40;99.90
15160;DHT22;7680;48.800;9.680;2024-03-29T22:39:58;9.20;99.90
15160;DHT22;7680;48.800;9.680;2024-03-29T22:45:00;9.20;99.90
15160;DHT22;7680;48.800;9.680;2024-03-29T22:50:02;9.10;99.90
15160;DHT22;7680;48.800;9.680;2024-03-29T22:55:07;9.00;99.90
15160;DHT22;7680;48.800;9.680;2024-03-29T23:00:10;9.10;99.90
15160;DHT22;7680;48.800;9.680;2024-03-29T23:05:16;9.10;99.90
15160;DHT22;7680;48.800;9.680;2024-03-29T23:10:19;9.10;99.90
15160;DHT22;7680;48.800;9.680;2024-03-29T23:15:22;9.00;99.90
15160;DHT22;7680;48.800;9.680;2024-03-29T23:20:24;9.00;99.90
15160;DHT22;7680;48.800;9.680;2024-03-29T23:25:28;8.90;99.90
15160;DHT22;7680;48.800;9.680;2024-03-29T23:30:30;8.90;99.90
15160;DHT22;7680;48.800;9.680;2024-03-29T23:35:32;8.80;99.90
15160;DHT22;7680;48.800;9.680;2024-03-29T23:40:35;8.80;99.90
15160;DHT22;7680;48.800;9.680;2024-03-29T23:45:38;8.80;99.90
15160;DHT22;7680;48.800;9.680;2024-03-29T23:50:40;8.70;99.90
15160;DHT22;7680;48.800;9.680;2024-03-29T23:55:49;8.70;99.90
